sensor_id;sensor_type;location;lat;lon;timestamp;P1;durP1;ratioP1;P2;durP2;ratioP2
59366;SDS011;45163;47.690;11.770;2023-03-23T00:01:35;5.43;;;1.60;;
59366;SDS011;45163;47.690;11.770;2023-03-23T00:04:02;2.37;;;1.50;;
59366;SDS011;45163;47.690;11.770;2023-03-23T00:06:29;3.67;;;1.37;;
59366;SDS011;45163;47.690;11.770;2023-03-23T00:08:58;5.73;;;1.50;;
59366;SDS011;45163;47.690;11.770;2023-03-23T00:11:26;1.77;;;1.50;;
59366;SDS011;45163;47.690;11.770;2023-03-23T00:13:54;5.23;;;1.73;;
59366;SDS011;45163;47.690;11.770;2023-03-23T00:16:24;4.47;;;1.70;;
59366;SDS011;45163;47.690;11.770;2023-03-23T00:18:59;3.13;;;1.70;;
59366;SDS011;45163;47.690;11.770;2023-03-23T00:21:34;2.10;;;1.50;;
59366;SDS011;45163;47.690;11.770;2023-03-23T00:24:05;4.83;;;1.87;;
59366;SDS011;45163;47.690;11.770;2023-03-23T00:26:34;1.47;;;1.37;;
59366;SDS011;45163;47.690;11.770;2023-03-23T00:29:05;2.63;;;1.50;;
59366;SDS011;45163;47.690;11.770;2023-03-23T00:31:33;2.40;;;1.27;;
59366;SDS011;45163;47.690;11.770;2023-03-23T00:34:01;1.70;;;1.50;;
59366;SDS011;45163;47.690;11.770;2023-03-23T00:36:30;3.07;;;1.50;;
59366;SDS011;45163;47.690;11.770;2023-03-23T00:38:59;1.60;;;1.50;;
59366;SDS011;45163;47.690;11.770;2023-03-23T00:41:26;3.23;;;1.40;;
59366;SDS011;45163;47.690;11.770;2023-03-23T00:43:54;2.30;;;1.50;;
59366;SDS011;45163;47.690;11.770;2023-03-23T00:46:22;2.47;;;1.60;;
59366;SDS011;45163;47.690;11.770;2023-03-23T00:48:48;1.97;;;1.60;;
59366;SDS011;45163;47.690;11.770;2023-03-23T00:51:16;2.30;;;1.50;;
59366;SDS011;45163;47.690;11.770;2023-03-23T00:53:43;4.13;;;1.70;;
59366;SDS011;45163;47.690;11.770;2023-03-23T00:56:10;2.30;;;1.60;;
59366;SDS011;45163;47.690;11.770;2023-03-23T00:58:36;4.10;;;1.70;;
59366;SDS011;45163;47.690;11.770;2023-03-23T01:01:03;2.90;;;1.80;;
59366;SDS011;45163;47.690;11.770;2023-03-23T01:03:30;4.40;;;1.97;;
59366;SDS011;45163;47.690;11.770;2023-03-23T01:05:56;2.50;;;1.80;;
59366;SDS011;45163;47.690;11.770;2023-03-23T01:08:23;5.47;;;1.90;;
59366;SDS011;45163;47.690;11.770;2023-03-23T01:10:50;3.10;;;1.70;;
59366;SDS011;45163;47.690;11.770;2023-03-23T01:13:16;2.37;;;1.80;;
59366;SDS011;45163;47.690;11.770;2023-03-23T01:15:42;2.20;;;1.90;;
59366;SDS011;45163;47.690;11.770;2023-03-23T01:18:09;4.13;;;2.10;;
59366;SDS011;45163;47.690;11.770;2023-03-23T01:20:36;3.43;;;1.90;;
59366;SDS011;45163;47.690;11.770;2023-03-23T01:23:03;7.83;;;1.90;;
59366;SDS011;45163;47.690;11.770;2023-03-23T01:25:30;2.27;;;1.70;;
59366;SDS011;45163;47.690;11.770;2023-03-23T01:27:58;2.60;;;1.70;;
59366;SDS011;45163;47.690;11.770;2023-03-23T01:30:24;2.60;;;1.40;;
59366;SDS011;45163;47.690;11.770;2023-03-23T01:32:51;3.60;;;1.57;;
59366;SDS011;45163;47.690;11.770;2023-03-23T01:35:18;1.70;;;1.50;;
59366;SDS011;45163;47.690;11.770;2023-03-23T01:37:44;3.37;;;1.60;;
59366;SDS011;45163;47.690;11.770;2023-03-23T01:40:10;1.70;;;1.50;;
59366;SDS011;45163;47.690;11.770;2023-03-23T01:42:38;1.60;;;1.37;;
59366;SDS011;45163;47.690;11.770;2023-03-23T01:47:49;5.10;;;1.50;;
59366;SDS011;45163;47.690;11.770;2023-03-23T01:50:40;1.47;;;1.20;;
59366;SDS011;45163;47.690;11.770;2023-03-23T01:53:12;4.33;;;1.47;;
59366;SDS011;45163;47.690;11.770;2023-03-23T01:55:40;1.50;;;1.40;;
59366;SDS011;45163;47.690;11.770;2023-03-23T01:58:09;4.70;;;1.70;;
59366;SDS011;45163;47.690;11.770;2023-03-23T02:00:37;2.17;;;1.67;;
59366;SDS011;45163;47.690;11.770;2023-03-23T02:03:06;2.13;;;1.50;;
59366;SDS011;45163;47.690;11.770;2023-03-23T02:05:36;2.33;;;1.40;;
59366;SDS011;45163;47.690;11.770;2023-03-23T02:08:05;1.60;;;1.40;;
59366;SDS011;45163;47.690;11.770;2023-03-23T02:10:34;2.13;;;1.50;;
59366;SDS011;45163;47.690;11.770;2023-03-23T02:13:03;3.27;;;1.43;;
59366;SDS011;45163;47.690;11.770;2023-03-23T02:26:41;1.83;;;1.53;;
59366;SDS011;45163;47.690;11.770;2023-03-23T02:32:16;2.37;;;1.70;;
59366;SDS011;45163;47.690;11.770;2023-03-23T02:35:08;2.53;;;1.50;;
59366;SDS011;45163;47.690;11.770;2023-03-23T02:40:30;2.37;;;1.67;;
59366;SDS011;45163;47.690;11.770;2023-03-23T02:43:02;2.77;;;1.60;;
59366;SDS011;45163;47.690;11.770;2023-03-23T02:45:34;1.53;;;1.40;;
59366;SDS011;45163;47.690;11.770;2023-03-23T02:48:04;2.13;;;1.70;;
59366;SDS011;45163;47.690;11.770;2023-03-23T02:50:31;2.03;;;1.23;;
59366;SDS011;45163;47.690;11.770;2023-03-23T02:53:00;3.13;;;1.70;;
59366;SDS011;45163;47.690;11.770;2023-03-23T02:55:28;1.60;;;1.40;;
59366;SDS011;45163;47.690;11.770;2023-03-23T02:57:55;3.43;;;1.60;;
59366;SDS011;45163;47.690;11.770;2023-03-23T03:00:22;1.93;;;1.20;;
59366;SDS011;45163;47.690;11.770;2023-03-23T03:02:54;7.07;;;1.60;;
59366;SDS011;45163;47.690;11.770;2023-03-23T03:08:34;4.10;;;1.50;;
59366;SDS011;45163;47.690;11.770;2023-03-23T03:11:03;2.97;;;1.40;;
59366;SDS011;45163;47.690;11.770;2023-03-23T03:16:14;2.07;;;1.37;;
59366;SDS011;45163;47.690;11.770;2023-03-23T03:18:52;4.83;;;1.77;;
59366;SDS011;45163;47.690;11.770;2023-03-23T03:21:33;2.47;;;1.53;;
59366;SDS011;45163;47.690;11.770;2023-03-23T03:24:03;1.60;;;1.30;;
59366;SDS011;45163;47.690;11.770;2023-03-23T03:26:33;2.60;;;1.60;;
59366;SDS011;45163;47.690;11.770;2023-03-23T03:29:00;1.63;;;1.30;;
59366;SDS011;45163;47.690;11.770;2023-03-23T03:31:29;2.07;;;1.40;;
59366;SDS011;45163;47.690;11.770;2023-03-23T03:33:59;1.90;;;1.70;;
59366;SDS011;45163;47.690;11.770;2023-03-23T03:36:31;4.10;;;1.80;;
59366;SDS011;45163;47.690;11.770;2023-03-23T03:39:02;3.03;;;1.47;;
59366;SDS011;45163;47.690;11.770;2023-03-23T03:41:33;1.90;;;1.50;;
59366;SDS011;45163;47.690;11.770;2023-03-23T03:44:01;3.63;;;1.57;;
59366;SDS011;45163;47.690;11.770;2023-03-23T03:46:27;1.47;;;1.30;;
59366;SDS011;45163;47.690;11.770;2023-03-23T03:48:56;2.33;;;1.60;;
59366;SDS011;45163;47.690;11.770;2023-03-23T03:51:23;3.97;;;1.63;;
59366;SDS011;45163;47.690;11.770;2023-03-23T03:53:50;2.73;;;1.67;;
59366;SDS011;45163;47.690;11.770;2023-03-23T03:56:17;2.57;;;1.60;;
59366;SDS011;45163;47.690;11.770;2023-03-23T03:58:43;3.27;;;2.00;;
59366;SDS011;45163;47.690;11.770;2023-03-23T04:01:09;6.27;;;1.70;;
59366;SDS011;45163;47.690;11.770;2023-03-23T04:03:36;2.57;;;2.03;;
59366;SDS011;45163;47.690;11.770;2023-03-23T04:06:02;2.23;;;1.73;;
59366;SDS011;45163;47.690;11.770;2023-03-23T04:08:29;2.67;;;1.50;;
59366;SDS011;45163;47.690;11.770;2023-03-23T04:10:55;1.97;;;1.57;;
59366;SDS011;45163;47.690;11.770;2023-03-23T04:13:22;7.13;;;1.53;;
59366;SDS011;45163;47.690;11.770;2023-03-23T04:15:48;2.37;;;1.50;;
59366;SDS011;45163;47.690;11.770;2023-03-23T04:18:14;1.53;;;1.43;;
59366;SDS011;45163;47.690;11.770;2023-03-23T04:20:43;3.03;;;1.90;;
59366;SDS011;45163;47.690;11.770;2023-03-23T04:23:19;2.43;;;1.80;;
59366;SDS011;45163;47.690;11.770;2023-03-23T04:25:47;3.33;;;1.60;;
59366;SDS011;45163;47.690;11.770;2023-03-23T04:28:15;2.70;;;1.80;;
59366;SDS011;45163;47.690;11.770;2023-03-23T04:30:49;2.43;;;2.13;;
59366;SDS011;45163;47.690;11.770;2023-03-23T04:33:18;2.33;;;1.97;;
59366;SDS011;45163;47.690;11.770;2023-03-23T04:35:46;2.23;;;1.57;;
59366;SDS011;45163;47.690;11.770;2023-03-23T04:38:14;2.00;;;1.70;;
59366;SDS011;45163;47.690;11.770;2023-03-23T04:40:42;2.07;;;1.60;;
59366;SDS011;45163;47.690;11.770;2023-03-23T04:43:09;1.73;;;1.60;;
59366;SDS011;45163;47.690;11.770;2023-03-23T04:45:38;2.20;;;1.60;;
59366;SDS011;45163;47.690;11.770;2023-03-23T04:48:07;5.33;;;1.33;;
59366;SDS011;45163;47.690;11.770;2023-03-23T04:50:34;2.30;;;1.43;;
59366;SDS011;45163;47.690;11.770;2023-03-23T04:53:01;5.40;;;1.90;;
59366;SDS011;45163;47.690;11.770;2023-03-23T04:55:32;8.47;;;1.60;;
59366;SDS011;45163;47.690;11.770;2023-03-23T04:58:03;2.40;;;1.70;;
59366;SDS011;45163;47.690;11.770;2023-03-23T05:00:31;1.70;;;1.40;;
59366;SDS011;45163;47.690;11.770;2023-03-23T05:02:58;4.27;;;1.70;;
59366;SDS011;45163;47.690;11.770;2023-03-23T05:05:26;2.80;;;1.60;;
59366;SDS011;45163;47.690;11.770;2023-03-23T05:07:54;5.87;;;2.00;;
59366;SDS011;45163;47.690;11.770;2023-03-23T05:10:21;4.77;;;1.70;;
59366;SDS011;45163;47.690;11.770;2023-03-23T05:12:47;5.70;;;1.63;;
59366;SDS011;45163;47.690;11.770;2023-03-23T05:15:14;4.77;;;1.90;;
59366;SDS011;45163;47.690;11.770;2023-03-23T05:17:42;1.77;;;1.67;;
59366;SDS011;45163;47.690;11.770;2023-03-23T05:20:14;4.13;;;1.40;;
59366;SDS011;45163;47.690;11.770;2023-03-23T05:22:46;3.10;;;1.83;;
59366;SDS011;45163;47.690;11.770;2023-03-23T05:25:16;2.37;;;1.70;;
59366;SDS011;45163;47.690;11.770;2023-03-23T05:27:46;1.97;;;1.60;;
59366;SDS011;45163;47.690;11.770;2023-03-23T05:30:19;3.27;;;2.03;;
59366;SDS011;45163;47.690;11.770;2023-03-23T05:32:47;5.83;;;1.73;;
59366;SDS011;45163;47.690;11.770;2023-03-23T05:35:16;2.50;;;1.60;;
59366;SDS011;45163;47.690;11.770;2023-03-23T05:37:43;4.10;;;2.27;;
59366;SDS011;45163;47.690;11.770;2023-03-23T05:40:10;3.87;;;2.20;;
59366;SDS011;45163;47.690;11.770;2023-03-23T05:42:37;3.60;;;1.80;;
59366;SDS011;45163;47.690;11.770;2023-03-23T05:45:07;2.10;;;1.70;;
59366;SDS011;45163;47.690;11.770;2023-03-23T05:47:34;3.13;;;1.90;;
59366;SDS011;45163;47.690;11.770;2023-03-23T05:50:01;2.57;;;1.90;;
59366;SDS011;45163;47.690;11.770;2023-03-23T05:52:28;4.40;;;1.70;;
59366;SDS011;45163;47.690;11.770;2023-03-23T05:54:53;6.23;;;2.30;;
59366;SDS011;45163;47.690;11.770;2023-03-23T05:57:20;2.40;;;1.50;;
59366;SDS011;45163;47.690;11.770;2023-03-23T05:59:49;2.77;;;1.70;;
59366;SDS011;45163;47.690;11.770;2023-03-23T06:02:15;9.57;;;3.23;;
59366;SDS011;45163;47.690;11.770;2023-03-23T06:04:41;2.73;;;1.80;;
59366;SDS011;45163;47.690;11.770;2023-03-23T06:07:07;2.57;;;1.80;;
59366;SDS011;45163;47.690;11.770;2023-03-23T06:09:38;4.70;;;1.80;;
59366;SDS011;45163;47.690;11.770;2023-03-23T06:12:04;1.50;;;1.40;;
59366;SDS011;45163;47.690;11.770;2023-03-23T06:14:31;4.77;;;1.60;;
59366;SDS011;45163;47.690;11.770;2023-03-23T06:16:57;2.93;;;1.40;;
59366;SDS011;45163;47.690;11.770;2023-03-23T06:19:23;9.67;;;2.37;;
59366;SDS011;45163;47.690;11.770;2023-03-23T06:21:49;1.73;;;1.50;;
59366;SDS011;45163;47.690;11.770;2023-03-23T06:24:15;1.97;;;1.60;;
59366;SDS011;45163;47.690;11.770;2023-03-23T06:26:41;6.93;;;2.10;;
59366;SDS011;45163;47.690;11.770;2023-03-23T06:29:07;5.03;;;1.80;;
59366;SDS011;45163;47.690;11.770;2023-03-23T06:31:37;3.03;;;1.67;;
59366;SDS011;45163;47.690;11.770;2023-03-23T06:34:06;3.43;;;1.73;;
59366;SDS011;45163;47.690;11.770;2023-03-23T06:36:32;2.67;;;1.80;;
59366;SDS011;45163;47.690;11.770;2023-03-23T06:38:58;4.33;;;1.80;;
59366;SDS011;45163;47.690;11.770;2023-03-23T06:41:24;3.80;;;1.60;;
59366;SDS011;45163;47.690;11.770;2023-03-23T06:43:50;2.57;;;1.80;;
59366;SDS011;45163;47.690;11.770;2023-03-23T06:46:17;1.70;;;1.60;;
59366;SDS011;45163;47.690;11.770;2023-03-23T06:48:43;4.17;;;1.93;;
59366;SDS011;45163;47.690;11.770;2023-03-23T06:51:09;2.70;;;1.70;;
59366;SDS011;45163;47.690;11.770;2023-03-23T06:53:35;1.93;;;1.57;;
59366;SDS011;45163;47.690;11.770;2023-03-23T06:56:01;6.33;;;2.10;;
59366;SDS011;45163;47.690;11.770;2023-03-23T06:58:27;2.67;;;1.67;;
59366;SDS011;45163;47.690;11.770;2023-03-23T07:00:54;6.67;;;1.80;;
59366;SDS011;45163;47.690;11.770;2023-03-23T07:03:22;4.10;;;1.90;;
59366;SDS011;45163;47.690;11.770;2023-03-23T07:05:48;2.03;;;1.57;;
59366;SDS011;45163;47.690;11.770;2023-03-23T07:08:15;3.27;;;1.50;;
59366;SDS011;45163;47.690;11.770;2023-03-23T07:10:41;3.13;;;1.80;;
59366;SDS011;45163;47.690;11.770;2023-03-23T07:13:07;4.20;;;2.10;;
59366;SDS011;45163;47.690;11.770;2023-03-23T07:15:33;8.47;;;2.10;;
59366;SDS011;45163;47.690;11.770;2023-03-23T07:17:59;4.50;;;2.23;;
59366;SDS011;45163;47.690;11.770;2023-03-23T07:20:25;3.37;;;2.00;;
59366;SDS011;45163;47.690;11.770;2023-03-23T07:22:53;5.27;;;1.77;;
59366;SDS011;45163;47.690;11.770;2023-03-23T07:25:19;7.73;;;1.97;;
59366;SDS011;45163;47.690;11.770;2023-03-23T07:27:45;6.37;;;2.00;;
59366;SDS011;45163;47.690;11.770;2023-03-23T07:30:12;4.60;;;2.00;;
59366;SDS011;45163;47.690;11.770;2023-03-23T07:32:40;2.10;;;1.80;;
59366;SDS011;45163;47.690;11.770;2023-03-23T07:35:07;4.70;;;1.97;;
59366;SDS011;45163;47.690;11.770;2023-03-23T07:37:34;5.50;;;2.17;;
59366;SDS011;45163;47.690;11.770;2023-03-23T07:40:01;3.53;;;1.53;;
59366;SDS011;45163;47.690;11.770;2023-03-23T07:42:41;4.70;;;2.20;;
59366;SDS011;45163;47.690;11.770;2023-03-23T07:45:08;1.63;;;1.40;;
59366;SDS011;45163;47.690;11.770;2023-03-23T07:47:35;4.17;;;1.70;;
59366;SDS011;45163;47.690;11.770;2023-03-23T07:50:02;2.17;;;1.67;;
59366;SDS011;45163;47.690;11.770;2023-03-23T07:52:28;4.67;;;1.83;;
59366;SDS011;45163;47.690;11.770;2023-03-23T07:54:56;3.30;;;1.57;;
59366;SDS011;45163;47.690;11.770;2023-03-23T07:57:22;2.57;;;1.77;;
59366;SDS011;45163;47.690;11.770;2023-03-23T07:59:48;1.97;;;1.70;;
59366;SDS011;45163;47.690;11.770;2023-03-23T08:02:14;4.30;;;1.70;;
59366;SDS011;45163;47.690;11.770;2023-03-23T08:04:40;4.30;;;1.60;;
59366;SDS011;45163;47.690;11.770;2023-03-23T08:07:08;4.60;;;2.03;;
59366;SDS011;45163;47.690;11.770;2023-03-23T08:09:37;3.90;;;2.20;;
59366;SDS011;45163;47.690;11.770;2023-03-23T08:12:04;6.37;;;2.00;;
59366;SDS011;45163;47.690;11.770;2023-03-23T08:14:30;3.80;;;1.60;;
59366;SDS011;45163;47.690;11.770;2023-03-23T08:16:56;3.57;;;1.50;;
59366;SDS011;45163;47.690;11.770;2023-03-23T08:19:25;2.20;;;1.80;;
59366;SDS011;45163;47.690;11.770;2023-03-23T08:21:52;4.57;;;1.90;;
59366;SDS011;45163;47.690;11.770;2023-03-23T08:24:18;2.07;;;1.83;;
59366;SDS011;45163;47.690;11.770;2023-03-23T08:26:44;2.47;;;1.70;;
59366;SDS011;45163;47.690;11.770;2023-03-23T08:29:10;1.97;;;1.73;;
59366;SDS011;45163;47.690;11.770;2023-03-23T08:31:37;4.33;;;2.00;;
59366;SDS011;45163;47.690;11.770;2023-03-23T08:34:04;4.47;;;2.20;;
59366;SDS011;45163;47.690;11.770;2023-03-23T08:36:34;3.77;;;2.30;;
59366;SDS011;45163;47.690;11.770;2023-03-23T08:39:03;6.17;;;2.27;;
59366;SDS011;45163;47.690;11.770;2023-03-23T08:41:31;2.60;;;2.10;;
59366;SDS011;45163;47.690;11.770;2023-03-23T08:43:57;2.50;;;2.00;;
59366;SDS011;45163;47.690;11.770;2023-03-23T08:46:23;4.20;;;2.00;;
59366;SDS011;45163;47.690;11.770;2023-03-23T08:48:49;10.00;;;2.20;;
59366;SDS011;45163;47.690;11.770;2023-03-23T08:51:16;6.30;;;2.47;;
59366;SDS011;45163;47.690;11.770;2023-03-23T08:53:42;4.13;;;2.20;;
59366;SDS011;45163;47.690;11.770;2023-03-23T08:56:09;12.77;;;2.60;;
59366;SDS011;45163;47.690;11.770;2023-03-23T08:58:38;6.23;;;2.37;;
59366;SDS011;45163;47.690;11.770;2023-03-23T09:01:05;5.40;;;2.47;;
59366;SDS011;45163;47.690;11.770;2023-03-23T09:03:33;6.10;;;2.20;;
59366;SDS011;45163;47.690;11.770;2023-03-23T09:06:00;3.47;;;2.13;;
59366;SDS011;45163;47.690;11.770;2023-03-23T09:08:31;2.80;;;2.13;;
59366;SDS011;45163;47.690;11.770;2023-03-23T09:11:02;2.60;;;1.93;;
59366;SDS011;45163;47.690;11.770;2023-03-23T09:13:29;3.53;;;2.33;;
59366;SDS011;45163;47.690;11.770;2023-03-23T09:15:55;2.93;;;2.20;;
59366;SDS011;45163;47.690;11.770;2023-03-23T09:18:21;5.10;;;2.27;;
59366;SDS011;45163;47.690;11.770;2023-03-23T09:20:49;3.27;;;2.57;;
59366;SDS011;45163;47.690;11.770;2023-03-23T09:23:16;5.63;;;3.43;;
59366;SDS011;45163;47.690;11.770;2023-03-23T09:25:42;6.63;;;3.80;;
59366;SDS011;45163;47.690;11.770;2023-03-23T09:28:09;6.83;;;2.93;;
59366;SDS011;45163;47.690;11.770;2023-03-23T09:30:36;9.60;;;2.87;;
59366;SDS011;45163;47.690;11.770;2023-03-23T09:33:04;6.50;;;2.30;;
59366;SDS011;45163;47.690;11.770;2023-03-23T09:35:31;6.77;;;2.63;;
59366;SDS011;45163;47.690;11.770;2023-03-23T09:37:59;5.63;;;2.50;;
59366;SDS011;45163;47.690;11.770;2023-03-23T09:40:48;6.43;;;2.57;;
59366;SDS011;45163;47.690;11.770;2023-03-23T09:46:07;5.13;;;3.40;;
59366;SDS011;45163;47.690;11.770;2023-03-23T09:53:55;6.20;;;3.90;;
59366;SDS011;45163;47.690;11.770;2023-03-23T09:56:28;10.67;;;5.03;;
59366;SDS011;45163;47.690;11.770;2023-03-23T09:59:04;10.13;;;4.83;;
59366;SDS011;45163;47.690;11.770;2023-03-23T10:01:43;8.97;;;4.90;;
59366;SDS011;45163;47.690;11.770;2023-03-23T10:06:42;7.53;;;5.97;;
59366;SDS011;45163;47.690;11.770;2023-03-23T10:09:11;7.33;;;5.90;;
59366;SDS011;45163;47.690;11.770;2023-03-23T10:14:23;6.57;;;5.23;;
59366;SDS011;45163;47.690;11.770;2023-03-23T10:19:29;9.97;;;6.63;;
59366;SDS011;45163;47.690;11.770;2023-03-23T10:22:00;10.00;;;6.13;;
59366;SDS011;45163;47.690;11.770;2023-03-23T10:24:33;7.50;;;5.80;;
59366;SDS011;45163;47.690;11.770;2023-03-23T10:30:17;8.30;;;5.67;;
59366;SDS011;45163;47.690;11.770;2023-03-23T10:32:55;8.13;;;6.33;;
59366;SDS011;45163;47.690;11.770;2023-03-23T10:38:14;8.63;;;5.87;;
59366;SDS011;45163;47.690;11.770;2023-03-23T10:41:04;7.67;;;5.23;;
59366;SDS011;45163;47.690;11.770;2023-03-23T10:43:40;9.80;;;5.90;;
59366;SDS011;45163;47.690;11.770;2023-03-23T10:48:55;6.13;;;4.82;;
59366;SDS011;45163;47.690;11.770;2023-03-23T10:51:27;8.05;;;5.00;;
59366;SDS011;45163;47.690;11.770;2023-03-23T10:54:05;6.20;;;5.53;;
59366;SDS011;45163;47.690;11.770;2023-03-23T10:56:40;7.28;;;5.43;;
59366;SDS011;45163;47.690;11.770;2023-03-23T10:59:21;8.10;;;4.90;;
59366;SDS011;45163;47.690;11.770;2023-03-23T11:01:55;7.60;;;4.95;;
59366;SDS011;45163;47.690;11.770;2023-03-23T11:04:23;6.05;;;5.13;;
59366;SDS011;45163;47.690;11.770;2023-03-23T11:06:52;5.25;;;3.72;;
59366;SDS011;45163;47.690;11.770;2023-03-23T11:09:22;4.82;;;3.53;;
59366;SDS011;45163;47.690;11.770;2023-03-23T11:12:03;3.42;;;2.80;;
59366;SDS011;45163;47.690;11.770;2023-03-23T11:14:33;6.43;;;3.20;;
59366;SDS011;45163;47.690;11.770;2023-03-23T11:17:05;3.83;;;2.88;;
59366;SDS011;45163;47.690;11.770;2023-03-23T11:19:45;7.18;;;2.53;;
59366;SDS011;45163;47.690;11.770;2023-03-23T11:22:45;4.87;;;2.83;;
59366;SDS011;45163;47.690;11.770;2023-03-23T11:25:06;3.80;;;2.50;;
59366;SDS011;45163;47.690;11.770;2023-03-23T11:27:38;3.20;;;2.30;;
59366;SDS011;45163;47.690;11.770;2023-03-23T11:30:10;2.73;;;2.20;;
59366;SDS011;45163;47.690;11.770;2023-03-23T11:32:45;2.40;;;2.20;;
59366;SDS011;45163;47.690;11.770;2023-03-23T11:35:16;2.67;;;2.40;;
59366;SDS011;45163;47.690;11.770;2023-03-23T11:37:56;5.03;;;2.30;;
59366;SDS011;45163;47.690;11.770;2023-03-23T11:40:25;2.93;;;2.10;;
59366;SDS011;45163;47.690;11.770;2023-03-23T11:48:20;5.20;;;2.00;;
59366;SDS011;45163;47.690;11.770;2023-03-23T11:50:55;2.90;;;2.07;;
59366;SDS011;45163;47.690;11.770;2023-03-23T11:58:54;2.77;;;2.20;;
59366;SDS011;45163;47.690;11.770;2023-03-23T12:01:41;2.70;;;2.23;;
59366;SDS011;45163;47.690;11.770;2023-03-23T12:13:02;3.13;;;2.30;;
59366;SDS011;45163;47.690;11.770;2023-03-23T12:19:01;3.70;;;2.10;;
59366;SDS011;45163;47.690;11.770;2023-03-23T12:35:18;5.50;;;2.10;;
59366;SDS011;45163;47.690;11.770;2023-03-23T12:43:42;4.33;;;2.30;;
59366;SDS011;45163;47.690;11.770;2023-03-23T12:49:12;7.87;;;2.97;;
59366;SDS011;45163;47.690;11.770;2023-03-23T12:52:04;7.60;;;3.47;;
59366;SDS011;45163;47.690;11.770;2023-03-23T12:54:30;5.10;;;3.33;;
59366;SDS011;45163;47.690;11.770;2023-03-23T12:57:45;3.40;;;3.10;;
59366;SDS011;45163;47.690;11.770;2023-03-23T13:05:28;4.90;;;3.10;;
59366;SDS011;45163;47.690;11.770;2023-03-23T13:08:05;4.13;;;3.10;;
59366;SDS011;45163;47.690;11.770;2023-03-23T13:10:47;3.90;;;3.03;;
59366;SDS011;45163;47.690;11.770;2023-03-23T13:13:24;3.77;;;3.03;;
59366;SDS011;45163;47.690;11.770;2023-03-23T13:24:27;14.07;;;4.23;;
59366;SDS011;45163;47.690;11.770;2023-03-23T13:26:58;5.87;;;3.20;;
59366;SDS011;45163;47.690;11.770;2023-03-23T13:29:26;6.20;;;3.40;;
59366;SDS011;45163;47.690;11.770;2023-03-23T13:32:12;5.20;;;3.30;;
59366;SDS011;45163;47.690;11.770;2023-03-23T13:34:42;7.73;;;3.23;;
59366;SDS011;45163;47.690;11.770;2023-03-23T13:37:10;4.53;;;3.37;;
59366;SDS011;45163;47.690;11.770;2023-03-23T13:39:52;11.70;;;3.33;;
59366;SDS011;45163;47.690;11.770;2023-03-23T13:42:30;4.00;;;3.10;;
59366;SDS011;45163;47.690;11.770;2023-03-23T13:48:38;5.87;;;3.70;;
59366;SDS011;45163;47.690;11.770;2023-03-23T13:56:13;5.37;;;3.23;;
59366;SDS011;45163;47.690;11.770;2023-03-23T13:58:45;4.77;;;3.30;;
59366;SDS011;45163;47.690;11.770;2023-03-23T14:01:17;8.17;;;3.33;;
59366;SDS011;45163;47.690;11.770;2023-03-23T14:03:48;4.00;;;3.27;;
59366;SDS011;45163;47.690;11.770;2023-03-23T14:06:19;4.03;;;3.20;;
59366;SDS011;45163;47.690;11.770;2023-03-23T14:08:51;8.20;;;3.60;;
59366;SDS011;45163;47.690;11.770;2023-03-23T14:11:23;6.63;;;3.40;;
59366;SDS011;45163;47.690;11.770;2023-03-23T14:14:04;4.10;;;3.60;;
59366;SDS011;45163;47.690;11.770;2023-03-23T14:21:58;6.07;;;4.03;;
59366;SDS011;45163;47.690;11.770;2023-03-23T14:24:32;4.27;;;3.13;;
59366;SDS011;45163;47.690;11.770;2023-03-23T14:29:31;7.27;;;3.30;;
59366;SDS011;45163;47.690;11.770;2023-03-23T14:31:57;4.97;;;3.33;;
59366;SDS011;45163;47.690;11.770;2023-03-23T14:34:25;6.50;;;3.40;;
59366;SDS011;45163;47.690;11.770;2023-03-23T14:36:54;5.40;;;3.40;;
59366;SDS011;45163;47.690;11.770;2023-03-23T14:41:54;4.03;;;3.33;;
59366;SDS011;45163;47.690;11.770;2023-03-23T14:44:31;4.30;;;3.27;;
59366;SDS011;45163;47.690;11.770;2023-03-23T14:47:04;4.30;;;3.20;;
59366;SDS011;45163;47.690;11.770;2023-03-23T14:49:37;4.80;;;3.50;;
59366;SDS011;45163;47.690;11.770;2023-03-23T14:52:10;9.17;;;3.83;;
59366;SDS011;45163;47.690;11.770;2023-03-23T14:54:41;5.90;;;3.60;;
59366;SDS011;45163;47.690;11.770;2023-03-23T14:57:13;8.67;;;3.83;;
59366;SDS011;45163;47.690;11.770;2023-03-23T14:59:42;4.27;;;3.27;;
59366;SDS011;45163;47.690;11.770;2023-03-23T15:02:23;4.50;;;3.13;;
59366;SDS011;45163;47.690;11.770;2023-03-23T15:04:56;4.20;;;3.40;;
59366;SDS011;45163;47.690;11.770;2023-03-23T15:07:29;3.70;;;2.90;;
59366;SDS011;45163;47.690;11.770;2023-03-23T15:09:59;3.50;;;2.67;;
59366;SDS011;45163;47.690;11.770;2023-03-23T15:12:26;6.97;;;2.43;;
59366;SDS011;45163;47.690;11.770;2023-03-23T15:15:03;3.50;;;2.13;;
59366;SDS011;45163;47.690;11.770;2023-03-23T15:17:34;3.00;;;2.20;;
59366;SDS011;45163;47.690;11.770;2023-03-23T15:23:13;7.87;;;2.33;;
59366;SDS011;45163;47.690;11.770;2023-03-23T15:25:47;5.00;;;2.40;;
59366;SDS011;45163;47.690;11.770;2023-03-23T15:28:17;5.23;;;2.03;;
59366;SDS011;45163;47.690;11.770;2023-03-23T15:30:47;3.50;;;2.20;;
59366;SDS011;45163;47.690;11.770;2023-03-23T15:33:13;2.73;;;2.10;;
59366;SDS011;45163;47.690;11.770;2023-03-23T15:35:40;3.00;;;2.20;;
59366;SDS011;45163;47.690;11.770;2023-03-23T15:38:30;2.67;;;1.93;;
59366;SDS011;45163;47.690;11.770;2023-03-23T15:40:58;3.93;;;2.10;;
59366;SDS011;45163;47.690;11.770;2023-03-23T15:43:33;2.40;;;1.77;;
59366;SDS011;45163;47.690;11.770;2023-03-23T15:51:16;4.97;;;2.10;;
59366;SDS011;45163;47.690;11.770;2023-03-23T15:53:44;3.17;;;1.90;;
59366;SDS011;45163;47.690;11.770;2023-03-23T15:56:12;2.20;;;2.00;;
59366;SDS011;45163;47.690;11.770;2023-03-23T15:58:39;2.53;;;1.93;;
59366;SDS011;45163;47.690;11.770;2023-03-23T16:01:07;2.73;;;2.30;;
59366;SDS011;45163;47.690;11.770;2023-03-23T16:03:50;5.13;;;2.20;;
59366;SDS011;45163;47.690;11.770;2023-03-23T16:06:17;4.70;;;2.20;;
59366;SDS011;45163;47.690;11.770;2023-03-23T16:08:45;2.47;;;1.90;;
59366;SDS011;45163;47.690;11.770;2023-03-23T16:11:16;2.97;;;2.10;;
59366;SDS011;45163;47.690;11.770;2023-03-23T16:13:58;4.33;;;2.20;;
59366;SDS011;45163;47.690;11.770;2023-03-23T16:16:45;2.43;;;2.00;;
59366;SDS011;45163;47.690;11.770;2023-03-23T16:19:28;8.67;;;2.60;;
59366;SDS011;45163;47.690;11.770;2023-03-23T16:21:58;3.47;;;2.10;;
59366;SDS011;45163;47.690;11.770;2023-03-23T16:24:24;3.20;;;2.57;;
59366;SDS011;45163;47.690;11.770;2023-03-23T16:26:50;3.10;;;2.73;;
59366;SDS011;45163;47.690;11.770;2023-03-23T16:29:16;6.53;;;2.77;;
59366;SDS011;45163;47.690;11.770;2023-03-23T16:31:42;6.03;;;2.77;;
59366;SDS011;45163;47.690;11.770;2023-03-23T16:34:08;3.23;;;2.20;;
59366;SDS011;45163;47.690;11.770;2023-03-23T16:36:34;3.63;;;2.00;;
59366;SDS011;45163;47.690;11.770;2023-03-23T16:39:00;3.07;;;2.20;;
59366;SDS011;45163;47.690;11.770;2023-03-23T16:41:27;7.50;;;2.80;;
59366;SDS011;45163;47.690;11.770;2023-03-23T16:43:53;5.13;;;2.53;;
59366;SDS011;45163;47.690;11.770;2023-03-23T16:46:19;2.83;;;2.13;;
59366;SDS011;45163;47.690;11.770;2023-03-23T16:48:45;5.00;;;2.30;;
59366;SDS011;45163;47.690;11.770;2023-03-23T16:51:11;3.63;;;2.17;;
59366;SDS011;45163;47.690;11.770;2023-03-23T16:53:38;3.67;;;1.93;;
59366;SDS011;45163;47.690;11.770;2023-03-23T16:56:04;7.87;;;2.67;;
59366;SDS011;45163;47.690;11.770;2023-03-23T16:58:30;5.80;;;2.43;;
59366;SDS011;45163;47.690;11.770;2023-03-23T17:00:56;3.87;;;2.10;;
59366;SDS011;45163;47.690;11.770;2023-03-23T17:03:22;4.87;;;2.10;;
59366;SDS011;45163;47.690;11.770;2023-03-23T17:05:49;3.03;;;2.10;;